createdAt,value
2018-09-20T00:00:14.156Z,23.98
2018-09-20T00:00:46.340Z,23.98
2018-09-20T00:01:18.535Z,23.97
2018-09-20T00:01:50.873Z,23.97
2018-09-20T00:02:23.086Z,23.97
2018-09-20T00:02:55.258Z,23.96
2018-09-20T00:03:27.592Z,23.97
2018-09-20T00:03:59.723Z,23.97
2018-09-20T00:04:31.914Z,23.97
2018-09-20T00:05:04.118Z,23.97
2018-09-20T00:05:36.299Z,23.97
2018-09-20T00:06:08.545Z,23.97
2018-09-20T00:06:40.666Z,23.97
2018-09-20T00:07:12.943Z,23.97
2018-09-20T00:07:45.158Z,23.96
2018-09-20T00:08:17.251Z,23.96
2018-09-20T00:08:49.506Z,23.96
2018-09-20T00:09:21.629Z,23.96
2018-09-20T00:09:53.903Z,23.96
2018-09-20T00:10:26.236Z,23.96
2018-09-20T00:10:58.381Z,23.97
2018-09-20T00:11:30.502Z,23.96
2018-09-20T00:12:02.644Z,23.96
2018-09-20T00:12:34.737Z,23.96
2018-09-20T00:13:06.894Z,23.97
2018-09-20T00:13:39.133Z,23.97
2018-09-20T00:14:11.290Z,23.97
2018-09-20T00:14:43.515Z,23.96
2018-09-20T00:15:15.645Z,23.95
2018-09-20T00:15:47.761Z,23.95
2018-09-20T00:16:19.870Z,23.95
2018-09-20T00:16:52.210Z,23.95
2018-09-20T00:17:24.330Z,23.95
2018-09-20T00:17:56.426Z,23.95
2018-09-20T00:18:28.531Z,23.95
2018-09-20T00:19:00.621Z,23.95
2018-09-20T00:19:32.758Z,23.94
2018-09-20T00:20:04.893Z,23.94
2018-09-20T00:20:37.158Z,23.94
2018-09-20T00:21:09.364Z,23.94
2018-09-20T00:21:41.489Z,23.95
2018-09-20T00:22:13.829Z,23.94
2018-09-20T00:22:46.225Z,23.95
2018-09-20T00:23:18.342Z,23.95
2018-09-20T00:23:50.505Z,23.95
2018-09-20T00:24:22.827Z,23.95
2018-09-20T00:24:55.453Z,23.94
2018-09-20T00:25:27.601Z,23.95
2018-09-20T00:25:59.880Z,23.95
2018-09-20T00:26:32.157Z,23.94
2018-09-20T00:27:04.566Z,23.96
2018-09-20T00:27:36.725Z,23.95
2018-09-20T00:28:08.869Z,23.95
2018-09-20T00:28:41.021Z,23.94
2018-09-20T00:29:13.163Z,23.95
2018-09-20T00:29:45.390Z,23.94
2018-09-20T00:30:17.543Z,23.95
2018-09-20T00:30:49.674Z,23.94
2018-09-20T00:31:21.850Z,23.95
2018-09-20T00:31:53.955Z,23.95
2018-09-20T00:32:26.159Z,23.94
2018-09-20T00:32:58.282Z,23.93
2018-09-20T00:33:30.774Z,23.94
2018-09-20T00:34:02.928Z,23.95
2018-09-20T00:34:35.155Z,23.92
2018-09-20T00:35:07.278Z,23.94
2018-09-20T00:35:39.497Z,23.94
2018-09-20T00:36:11.607Z,23.94
2018-09-20T00:36:43.750Z,23.94
2018-09-20T00:37:16.179Z,23.94
2018-09-20T00:37:48.442Z,23.94
2018-09-20T00:38:20.891Z,23.93
2018-09-20T00:38:53.082Z,23.93
2018-09-20T00:39:25.399Z,23.94
2018-09-20T00:39:57.534Z,23.94
2018-09-20T00:40:29.682Z,23.94
2018-09-20T00:41:01.801Z,23.94
2018-09-20T00:41:33.936Z,23.94
2018-09-20T00:42:06.029Z,23.95
2018-09-20T00:42:38.255Z,23.94
2018-09-20T00:43:10.442Z,23.94
2018-09-20T00:43:42.571Z,23.94
2018-09-20T00:44:14.737Z,23.94
2018-09-20T00:44:46.863Z,23.94
2018-09-20T00:45:19.009Z,23.93
2018-09-20T00:45:51.101Z,23.93
2018-09-20T00:46:23.234Z,23.93
2018-09-20T00:46:55.355Z,23.93
2018-09-20T00:47:27.571Z,23.94
2018-09-20T00:47:59.905Z,23.94
2018-09-20T00:48:32.140Z,23.93
2018-09-20T00:49:04.307Z,23.93
2018-09-20T00:49:36.393Z,23.94
2018-09-20T00:50:08.494Z,23.94
2018-09-20T00:50:40.645Z,23.94
2018-09-20T00:51:12.768Z,23.93
2018-09-20T00:51:44.919Z,23.94
2018-09-20T00:52:17.182Z,23.94
2018-09-20T00:52:49.279Z,23.92
2018-09-20T00:53:21.448Z,23.93
2018-09-20T00:53:53.651Z,23.93
2018-09-20T00:54:25.804Z,23.93
2018-09-20T00:54:57.919Z,23.94
2018-09-20T00:55:30.290Z,23.93
2018-09-20T00:56:02.460Z,23.93
2018-09-20T00:56:34.614Z,23.93
2018-09-20T00:57:06.951Z,23.93
2018-09-20T00:57:39.085Z,23.92
2018-09-20T00:58:11.242Z,23.92
2018-09-20T00:58:43.357Z,23.92
2018-09-20T00:59:15.464Z,23.91
2018-09-20T00:59:47.630Z,23.92
2018-09-20T01:00:19.764Z,23.93
2018-09-20T01:00:51.873Z,23.93
2018-09-20T01:01:23.963Z,23.94
2018-09-20T01:01:56.079Z,23.93
2018-09-20T01:02:28.231Z,23.93
2018-09-20T01:03:00.356Z,23.92
2018-09-20T01:03:32.598Z,23.93
2018-09-20T01:04:04.752Z,23.92
2018-09-20T01:04:36.922Z,23.92
2018-09-20T01:05:09.077Z,23.92
2018-09-20T01:05:41.162Z,23.93
2018-09-20T01:06:13.287Z,23.93
2018-09-20T01:06:45.397Z,23.92
2018-09-20T01:07:17.673Z,23.93
2018-09-20T01:07:49.829Z,23.92
2018-09-20T01:08:21.989Z,23.93
2018-09-20T01:08:54.153Z,23.93
2018-09-20T01:09:26.630Z,23.93
2018-09-20T01:09:58.784Z,23.92
2018-09-20T01:10:31.051Z,23.93
2018-09-20T01:11:03.296Z,23.93
2018-09-20T01:11:35.416Z,23.93
2018-09-20T01:12:07.551Z,23.92
2018-09-20T01:12:39.638Z,23.92
2018-09-20T01:13:11.959Z,23.91
2018-09-20T01:13:44.074Z,23.92
2018-09-20T01:14:16.337Z,23.92
2018-09-20T01:14:48.478Z,23.92
2018-09-20T01:15:20.739Z,23.91
2018-09-20T01:15:52.869Z,23.93
2018-09-20T01:16:25.002Z,23.92
2018-09-20T01:16:57.148Z,23.92
2018-09-20T01:17:29.356Z,23.91
2018-09-20T01:18:01.479Z,23.91
2018-09-20T01:18:33.661Z,23.91
2018-09-20T01:19:05.743Z,23.91
2018-09-20T01:19:37.972Z,23.91
2018-09-20T01:20:10.060Z,23.91
2018-09-20T01:20:42.337Z,23.91
2018-09-20T01:21:14.532Z,23.91
2018-09-20T01:21:46.635Z,23.91
2018-09-20T01:22:18.728Z,23.90
2018-09-20T01:22:50.822Z,23.91
2018-09-20T01:23:23.007Z,23.91
2018-09-20T01:23:55.122Z,23.91
2018-09-20T01:24:27.353Z,23.91
2018-09-20T01:24:59.493Z,23.91
2018-09-20T01:25:31.726Z,23.91
2018-09-20T01:26:03.927Z,23.91
2018-09-20T01:26:36.094Z,23.91
2018-09-20T01:27:08.299Z,23.90
2018-09-20T01:27:40.461Z,23.90
2018-09-20T01:28:12.838Z,23.90
2018-09-20T01:28:44.963Z,23.90
2018-09-20T01:29:17.219Z,23.90
2018-09-20T01:29:49.344Z,23.90
2018-09-20T01:30:21.553Z,23.90
2018-09-20T01:30:53.657Z,23.89
2018-09-20T01:31:25.865Z,23.90
2018-09-20T01:31:58.010Z,23.90
2018-09-20T01:32:30.137Z,23.91
2018-09-20T01:33:02.233Z,23.90
2018-09-20T01:33:34.404Z,23.90
2018-09-20T01:34:06.541Z,23.89
2018-09-20T01:34:38.701Z,23.89
2018-09-20T01:35:10.789Z,23.90
2018-09-20T01:35:42.892Z,23.90
2018-09-20T01:36:15.353Z,23.90
2018-09-20T01:36:47.573Z,23.88
2018-09-20T01:37:19.831Z,23.90
2018-09-20T01:37:52.020Z,23.90
2018-09-20T01:38:24.126Z,23.91
2018-09-20T01:38:56.277Z,23.89
2018-09-20T01:39:28.483Z,23.90
2018-09-20T01:40:00.558Z,23.90
2018-09-20T01:40:32.687Z,23.89
2018-09-20T01:41:05.046Z,23.90
2018-09-20T01:41:37.123Z,23.89
2018-09-20T01:42:09.262Z,23.89
2018-09-20T01:42:41.362Z,23.89
2018-09-20T01:43:13.562Z,23.88
2018-09-20T01:43:45.662Z,23.87
2018-09-20T01:44:17.869Z,23.89
2018-09-20T01:44:50.094Z,23.88
2018-09-20T01:45:22.240Z,23.88
2018-09-20T01:45:54.323Z,23.89
2018-09-20T01:46:26.450Z,23.89
2018-09-20T01:46:58.551Z,23.89
2018-09-20T01:47:30.654Z,23.88
2018-09-20T01:48:02.766Z,23.88
2018-09-20T01:48:34.909Z,23.88
2018-09-20T01:49:07.050Z,23.88
2018-09-20T01:49:39.299Z,23.88
2018-09-20T01:50:11.460Z,23.88
2018-09-20T01:50:43.579Z,23.89
2018-09-20T01:51:15.837Z,23.88
2018-09-20T01:51:48.010Z,23.88
2018-09-20T01:52:20.093Z,23.88
2018-09-20T01:52:52.161Z,23.89
2018-09-20T01:53:24.263Z,23.88
2018-09-20T01:53:56.367Z,23.88
2018-09-20T01:54:28.466Z,23.88
2018-09-20T01:55:00.597Z,23.88
2018-09-20T01:55:32.692Z,23.88
2018-09-20T01:56:04.787Z,23.88
2018-09-20T01:56:36.937Z,23.90
2018-09-20T01:57:09.156Z,23.88
2018-09-20T01:57:41.279Z,23.90
2018-09-20T01:58:13.385Z,23.89
2018-09-20T01:58:45.511Z,23.89
2018-09-20T01:59:17.686Z,23.88
2018-09-20T01:59:49.794Z,23.87
2018-09-20T02:00:21.888Z,23.88
2018-09-20T02:00:54.020Z,23.88
2018-09-20T02:01:26.286Z,23.88
2018-09-20T02:01:58.403Z,23.87
2018-09-20T02:02:30.606Z,23.88
2018-09-20T02:03:02.716Z,23.87
2018-09-20T02:03:34.825Z,23.87
2018-09-20T02:04:06.978Z,23.88
2018-09-20T02:04:39.189Z,23.87
2018-09-20T02:05:11.370Z,23.87
2018-09-20T02:05:43.631Z,23.87
2018-09-20T02:06:15.716Z,23.87
2018-09-20T02:06:47.827Z,23.87
2018-09-20T02:07:20.091Z,23.86
2018-09-20T02:07:52.270Z,23.87
2018-09-20T02:08:24.389Z,23.86
2018-09-20T02:08:56.646Z,23.86
2018-09-20T02:09:28.779Z,23.87
2018-09-20T02:10:01.056Z,23.86
2018-09-20T02:10:33.167Z,23.86
2018-09-20T02:11:05.297Z,23.87
2018-09-20T02:11:37.462Z,23.86
2018-09-20T02:12:09.549Z,23.85
2018-09-20T02:12:41.658Z,23.86
2018-09-20T02:13:13.761Z,23.87
2018-09-20T02:13:45.873Z,23.86
2018-09-20T02:14:17.998Z,23.86
2018-09-20T02:14:50.123Z,23.85
2018-09-20T02:15:22.310Z,23.85
2018-09-20T02:15:54.512Z,23.87
2018-09-20T02:16:26.627Z,23.86
2018-09-20T02:16:58.720Z,23.85
2018-09-20T02:17:30.873Z,23.85
2018-09-20T02:18:02.989Z,23.85
2018-09-20T02:18:35.109Z,23.84
2018-09-20T02:19:07.249Z,23.86
2018-09-20T02:19:39.630Z,23.86
2018-09-20T02:20:11.717Z,23.85
2018-09-20T02:20:43.833Z,23.84
2018-09-20T02:21:15.950Z,23.85
2018-09-20T02:21:48.061Z,23.84
2018-09-20T02:22:20.292Z,23.84
2018-09-20T02:22:52.624Z,23.84
2018-09-20T02:23:24.722Z,23.84
2018-09-20T02:23:56.831Z,23.84
2018-09-20T02:24:28.942Z,23.83
2018-09-20T02:25:01.108Z,23.84
2018-09-20T02:25:33.385Z,23.84
2018-09-20T02:26:05.496Z,23.84
2018-09-20T02:26:37.697Z,23.84
2018-09-20T02:27:09.813Z,23.84
2018-09-20T02:27:41.938Z,23.84
2018-09-20T02:28:14.103Z,23.83
2018-09-20T02:28:46.516Z,23.83
2018-09-20T02:29:18.643Z,23.83
2018-09-20T02:29:50.773Z,23.83
2018-09-20T02:30:22.976Z,23.82
2018-09-20T02:30:55.073Z,23.83
2018-09-20T02:31:27.208Z,23.84
2018-09-20T02:31:59.345Z,23.83
2018-09-20T02:32:31.490Z,23.83
2018-09-20T02:33:03.676Z,23.83
2018-09-20T02:33:36.108Z,23.83
2018-09-20T02:34:08.214Z,23.83
2018-09-20T02:34:40.617Z,23.83
2018-09-20T02:35:12.773Z,23.82
2018-09-20T02:35:44.957Z,23.82
2018-09-20T02:36:17.086Z,23.82
2018-09-20T02:36:49.175Z,23.82
2018-09-20T02:37:21.420Z,23.83
2018-09-20T02:37:53.591Z,23.83
2018-09-20T02:38:25.851Z,23.82
2018-09-20T02:38:58.166Z,23.82
2018-09-20T02:39:30.275Z,23.82
2018-09-20T02:40:02.424Z,23.82
2018-09-20T02:40:34.614Z,23.81
2018-09-20T02:41:06.747Z,23.81
2018-09-20T02:41:38.881Z,23.80
2018-09-20T02:42:10.967Z,23.81
2018-09-20T02:42:43.066Z,23.81
2018-09-20T02:43:15.158Z,23.80
2018-09-20T02:43:47.372Z,23.81
2018-09-20T02:44:19.607Z,23.81
2018-09-20T02:44:51.888Z,23.81
2018-09-20T02:45:23.974Z,23.81
2018-09-20T02:45:56.090Z,23.81
2018-09-20T02:46:28.315Z,23.82
2018-09-20T02:47:00.412Z,23.82
2018-09-20T02:47:32.529Z,23.83
2018-09-20T02:48:04.682Z,23.83
2018-09-20T02:48:36.865Z,23.82
2018-09-20T02:49:08.992Z,23.82
2018-09-20T02:49:41.112Z,23.82
2018-09-20T02:50:13.289Z,23.82
2018-09-20T02:50:45.418Z,23.81
2018-09-20T02:51:17.547Z,23.82
2018-09-20T02:51:49.662Z,23.82
2018-09-20T02:52:21.806Z,23.81
2018-09-20T02:52:54.085Z,23.82
2018-09-20T02:53:26.654Z,23.82
2018-09-20T02:53:58.746Z,23.81
2018-09-20T02:54:31.031Z,23.81
2018-09-20T02:55:03.303Z,23.81
2018-09-20T02:55:35.399Z,23.81
2018-09-20T02:56:07.510Z,23.82
2018-09-20T02:56:39.783Z,23.81
2018-09-20T02:57:12.053Z,23.82
2018-09-20T02:57:44.130Z,23.80
2018-09-20T02:58:16.250Z,23.80
2018-09-20T02:58:48.585Z,23.79
2018-09-20T02:59:20.705Z,23.80
2018-09-20T02:59:52.820Z,23.79
2018-09-20T03:00:24.951Z,23.79
2018-09-20T03:00:57.103Z,23.78
2018-09-20T03:01:29.478Z,23.79
2018-09-20T03:02:01.668Z,23.80
2018-09-20T03:02:33.958Z,23.78
2018-09-20T03:03:06.063Z,23.78
2018-09-20T03:03:38.194Z,23.78
2018-09-20T03:04:10.339Z,23.77
2018-09-20T03:04:42.504Z,23.77
2018-09-20T03:05:14.809Z,23.77
2018-09-20T03:05:46.919Z,23.78
2018-09-20T03:06:19.017Z,23.77
2018-09-20T03:06:51.326Z,23.77
2018-09-20T03:07:23.459Z,23.78
2018-09-20T03:07:55.700Z,23.79
2018-09-20T03:08:27.842Z,23.78
2018-09-20T03:09:00.047Z,23.78
2018-09-20T03:09:32.160Z,23.78
2018-09-20T03:10:04.249Z,23.78
2018-09-20T03:10:36.519Z,23.78
2018-09-20T03:11:08.660Z,23.78
2018-09-20T03:11:40.911Z,23.78
2018-09-20T03:12:13.054Z,23.79
2018-09-20T03:12:45.153Z,23.78
2018-09-20T03:13:17.356Z,23.79
2018-09-20T03:13:49.566Z,23.78
2018-09-20T03:14:21.677Z,23.78
2018-09-20T03:14:53.815Z,23.78
2018-09-20T03:15:25.993Z,23.78
2018-09-20T03:15:58.242Z,23.80
2018-09-20T03:16:30.511Z,23.79
2018-09-20T03:17:02.606Z,23.79
2018-09-20T03:17:34.750Z,23.79
2018-09-20T03:18:06.944Z,23.79
2018-09-20T03:18:39.046Z,23.79
2018-09-20T03:19:11.377Z,23.78
2018-09-20T03:19:43.513Z,23.80
2018-09-20T03:20:15.614Z,23.79
2018-09-20T03:20:47.717Z,23.79
2018-09-20T03:21:19.831Z,23.77
2018-09-20T03:21:51.911Z,23.78
2018-09-20T03:22:24.037Z,23.77
2018-09-20T03:22:56.178Z,23.77
2018-09-20T03:23:28.321Z,23.76
2018-09-20T03:24:00.449Z,23.76
2018-09-20T03:24:32.673Z,23.77
2018-09-20T03:25:04.846Z,23.76
2018-09-20T03:25:36.919Z,23.77
2018-09-20T03:26:09.177Z,23.76
2018-09-20T03:26:41.258Z,23.77
2018-09-20T03:27:13.560Z,23.77
2018-09-20T03:27:45.667Z,23.76
2018-09-20T03:28:17.825Z,23.76
2018-09-20T03:28:49.985Z,23.76
2018-09-20T03:29:22.091Z,23.74
2018-09-20T03:29:54.363Z,23.75
2018-09-20T03:30:26.653Z,23.75
2018-09-20T03:30:58.754Z,23.76
2018-09-20T03:31:30.990Z,23.76
2018-09-20T03:32:03.094Z,23.74
2018-09-20T03:32:35.192Z,23.75
2018-09-20T03:33:07.381Z,23.76
2018-09-20T03:33:39.490Z,23.73
2018-09-20T03:34:11.679Z,23.74
2018-09-20T03:34:43.783Z,23.74
2018-09-20T03:35:15.968Z,23.74
2018-09-20T03:35:48.213Z,23.76
2018-09-20T03:36:20.404Z,23.74
2018-09-20T03:36:52.563Z,23.74
2018-09-20T03:37:24.702Z,23.76
2018-09-20T03:37:56.854Z,23.75
2018-09-20T03:38:29.130Z,23.75
2018-09-20T03:39:01.199Z,23.74
2018-09-20T03:39:33.350Z,23.76
2018-09-20T03:40:05.472Z,23.74
2018-09-20T03:40:37.567Z,23.74
2018-09-20T03:41:09.660Z,23.74
2018-09-20T03:41:41.854Z,23.74
2018-09-20T03:42:13.938Z,23.74
2018-09-20T03:42:46.152Z,23.76
2018-09-20T03:43:18.409Z,23.75
2018-09-20T03:43:50.581Z,23.76
2018-09-20T03:44:22.786Z,23.74
2018-09-20T03:44:54.927Z,23.74
2018-09-20T03:45:27.163Z,23.77
2018-09-20T03:45:59.261Z,23.75
2018-09-20T03:46:31.644Z,23.74
2018-09-20T03:47:03.865Z,23.74
2018-09-20T03:47:35.993Z,23.74
2018-09-20T03:48:08.122Z,23.74
2018-09-20T03:48:40.247Z,23.74
2018-09-20T03:49:12.616Z,23.73
2018-09-20T03:49:44.835Z,23.73
2018-09-20T03:50:17.128Z,23.74
2018-09-20T03:50:49.277Z,23.74
2018-09-20T03:51:21.397Z,23.74
2018-09-20T03:51:53.493Z,23.73
2018-09-20T03:52:25.641Z,23.73
2018-09-20T03:52:57.923Z,23.73
2018-09-20T03:53:30.156Z,23.74
2018-09-20T03:54:02.257Z,23.73
2018-09-20T03:54:34.389Z,23.73
2018-09-20T03:55:06.724Z,23.74
2018-09-20T03:55:38.976Z,23.73
2018-09-20T03:56:11.059Z,23.74
2018-09-20T03:56:43.271Z,23.75
2018-09-20T03:57:15.556Z,23.74
2018-09-20T03:57:47.893Z,23.76
2018-09-20T03:58:20.020Z,23.73
2018-09-20T03:58:52.259Z,23.74
2018-09-20T03:59:24.405Z,23.74
2018-09-20T03:59:56.610Z,23.74
2018-09-20T04:00:28.837Z,23.74
2018-09-20T04:01:01.302Z,23.72
2018-09-20T04:01:33.447Z,23.73
2018-09-20T04:02:05.569Z,23.73
2018-09-20T04:02:37.766Z,23.73
2018-09-20T04:03:09.951Z,23.73
2018-09-20T04:03:42.064Z,23.74
2018-09-20T04:04:14.399Z,23.73
2018-09-20T04:04:46.549Z,23.74
2018-09-20T04:05:52.217Z,23.73
2018-09-20T04:06:24.337Z,23.73
2018-09-20T04:06:56.528Z,23.74
2018-09-20T04:07:28.897Z,23.72
2018-09-20T04:08:01.031Z,23.73
2018-09-20T04:08:33.195Z,23.73
2018-09-20T04:09:05.340Z,23.72
2018-09-20T04:09:37.502Z,23.72
2018-09-20T04:10:09.621Z,23.73
2018-09-20T04:10:41.725Z,23.73
2018-09-20T04:11:13.812Z,23.74
2018-09-20T04:11:45.953Z,23.73
2018-09-20T04:12:18.087Z,23.74
2018-09-20T04:12:50.184Z,23.73
2018-09-20T04:13:22.363Z,23.73
2018-09-20T04:13:54.669Z,23.73
2018-09-20T04:14:26.784Z,23.72
2018-09-20T04:14:58.967Z,23.72
2018-09-20T04:15:31.107Z,23.72
2018-09-20T04:16:03.425Z,23.72
2018-09-20T04:16:35.666Z,23.71
2018-09-20T04:17:07.758Z,23.72
2018-09-20T04:17:39.946Z,23.72
2018-09-20T04:18:12.048Z,23.73
2018-09-20T04:18:44.143Z,23.73
2018-09-20T04:19:16.386Z,23.73
2018-09-20T04:19:48.737Z,23.72
2018-09-20T04:20:20.840Z,23.72
2018-09-20T04:20:53.044Z,23.71
2018-09-20T04:21:25.233Z,23.70
2018-09-20T04:21:57.386Z,23.69
2018-09-20T04:22:29.505Z,23.70
2018-09-20T04:23:01.664Z,23.70
2018-09-20T04:23:33.752Z,23.71
2018-09-20T04:24:05.874Z,23.69
2018-09-20T04:24:38.097Z,23.71
2018-09-20T04:25:10.193Z,23.70
2018-09-20T04:25:42.334Z,23.69
2018-09-20T04:26:14.424Z,23.70
2018-09-20T04:26:46.517Z,23.71
2018-09-20T04:27:18.739Z,23.70
2018-09-20T04:27:50.867Z,23.70
2018-09-20T04:28:23.014Z,23.69
2018-09-20T04:28:55.094Z,23.68
2018-09-20T04:29:27.239Z,23.69
2018-09-20T04:29:59.402Z,23.70
2018-09-20T04:30:31.717Z,23.70
2018-09-20T04:31:03.973Z,23.71
2018-09-20T04:31:36.213Z,23.71
2018-09-20T04:32:08.291Z,23.71
2018-09-20T04:32:40.375Z,23.68
2018-09-20T04:33:12.509Z,23.70
2018-09-20T04:33:44.586Z,23.69
2018-09-20T04:34:16.727Z,23.69
2018-09-20T04:34:48.855Z,23.69
2018-09-20T04:35:20.986Z,23.70
2018-09-20T04:35:53.071Z,23.69
2018-09-20T04:36:25.223Z,23.69
2018-09-20T04:36:57.399Z,23.69
2018-09-20T04:37:29.496Z,23.70
2018-09-20T04:38:01.702Z,23.70
2018-09-20T04:38:33.811Z,23.70
2018-09-20T04:39:05.886Z,23.70
2018-09-20T04:39:38.015Z,23.70
2018-09-20T04:40:10.124Z,23.69
2018-09-20T04:40:42.652Z,23.69
2018-09-20T04:41:14.769Z,23.70
2018-09-20T04:41:46.870Z,23.70
2018-09-20T04:42:18.944Z,23.69
2018-09-20T04:42:51.082Z,23.69
2018-09-20T04:43:23.166Z,23.68
2018-09-20T04:43:55.405Z,23.69
2018-09-20T04:44:27.550Z,23.68
2018-09-20T04:44:59.720Z,23.68
2018-09-20T04:45:31.922Z,23.67
2018-09-20T04:46:04.087Z,23.67
2018-09-20T04:46:36.212Z,23.68
2018-09-20T04:47:08.354Z,23.68
2018-09-20T04:47:40.679Z,23.66
2018-09-20T04:48:12.815Z,23.68
2018-09-20T04:48:44.911Z,23.67
2018-09-20T04:49:17.037Z,23.69
2018-09-20T04:49:49.275Z,23.69
2018-09-20T04:50:21.440Z,23.69
2018-09-20T04:50:53.554Z,23.69
2018-09-20T04:51:25.963Z,23.70
2018-09-20T04:51:58.068Z,23.70
2018-09-20T04:52:30.156Z,23.69
2018-09-20T04:53:02.283Z,23.68
2018-09-20T04:53:34.379Z,23.67
2018-09-20T04:54:06.485Z,23.67
2018-09-20T04:54:38.684Z,23.67
2018-09-20T04:55:10.835Z,23.67
2018-09-20T04:55:42.941Z,23.67
2018-09-20T04:56:15.186Z,23.68
2018-09-20T04:56:47.465Z,23.69
2018-09-20T04:57:19.717Z,23.68
2018-09-20T04:57:51.825Z,23.68
2018-09-20T04:58:24.031Z,23.68
2018-09-20T04:58:56.187Z,23.68
2018-09-20T04:59:28.329Z,23.68
2018-09-20T05:00:00.505Z,23.67
2018-09-20T05:00:32.593Z,23.68
2018-09-20T05:01:05.045Z,23.69
2018-09-20T05:01:37.166Z,23.67
2018-09-20T05:02:09.282Z,23.68
2018-09-20T05:02:41.574Z,23.68
2018-09-20T05:03:13.713Z,23.68
2018-09-20T05:03:45.831Z,23.68
2018-09-20T05:04:19.161Z,23.67
2018-09-20T05:04:51.267Z,23.68
2018-09-20T05:05:24.307Z,23.69
2018-09-20T05:05:58.216Z,23.69
2018-09-20T05:06:30.721Z,23.70
2018-09-20T05:07:02.835Z,23.69
2018-09-20T05:07:34.931Z,23.69
2018-09-20T05:08:07.152Z,23.69
2018-09-20T05:08:39.246Z,23.68
2018-09-20T05:09:11.354Z,23.68
2018-09-20T05:09:43.446Z,23.68
2018-09-20T05:10:15.569Z,23.68
2018-09-20T05:10:47.669Z,23.67
2018-09-20T05:11:19.867Z,23.66
2018-09-20T05:11:51.991Z,23.67
2018-09-20T05:12:24.151Z,23.67
2018-09-20T05:12:56.274Z,23.67
2018-09-20T05:13:28.380Z,23.67
2018-09-20T05:14:00.517Z,23.66
2018-09-20T05:14:32.832Z,23.66
2018-09-20T05:15:04.901Z,23.67
2018-09-20T05:15:37.022Z,23.66
2018-09-20T05:16:09.185Z,23.67
2018-09-20T05:16:41.440Z,23.66
2018-09-20T05:17:13.555Z,23.66
2018-09-20T05:17:45.673Z,23.66
2018-09-20T05:18:17.905Z,23.65
2018-09-20T05:18:49.998Z,23.66
2018-09-20T05:19:22.277Z,23.66
2018-09-20T05:19:54.672Z,23.65
2018-09-20T05:20:26.808Z,23.67
2018-09-20T05:20:58.988Z,23.67
2018-09-20T05:21:31.198Z,23.67
2018-09-20T05:22:03.334Z,23.67
2018-09-20T05:22:35.691Z,23.67
2018-09-20T05:23:07.815Z,23.68
2018-09-20T05:23:39.928Z,23.67
2018-09-20T05:24:12.077Z,23.67
2018-09-20T05:24:44.270Z,23.68
2018-09-20T05:25:16.370Z,23.68
2018-09-20T05:25:48.493Z,23.67
2018-09-20T05:26:20.616Z,23.65
2018-09-20T05:26:52.835Z,23.67
2018-09-20T05:27:24.918Z,23.65
2018-09-20T05:27:57.090Z,23.65
2018-09-20T05:28:29.444Z,23.68
2018-09-20T05:29:01.598Z,23.68
2018-09-20T05:29:33.772Z,23.67
2018-09-20T05:30:06.003Z,23.65
2018-09-20T05:30:38.326Z,23.66
2018-09-20T05:31:10.455Z,23.66
2018-09-20T05:31:42.542Z,23.66
2018-09-20T05:32:14.668Z,23.65
2018-09-20T05:32:46.795Z,23.66
2018-09-20T05:33:19.136Z,23.66
2018-09-20T05:33:51.268Z,23.67
2018-09-20T05:34:23.445Z,23.66
2018-09-20T05:34:55.603Z,23.67
2018-09-20T05:35:27.729Z,23.67
2018-09-20T05:35:59.880Z,23.67
2018-09-20T05:36:31.981Z,23.68
2018-09-20T05:37:04.179Z,23.68
2018-09-20T05:37:36.441Z,23.69
2018-09-20T05:38:08.707Z,23.66
2018-09-20T05:38:40.841Z,23.67
2018-09-20T05:39:13.027Z,23.67
2018-09-20T05:39:45.259Z,23.67
2018-09-20T05:40:17.568Z,23.67
2018-09-20T05:40:49.806Z,23.67
2018-09-20T05:41:22.167Z,23.67
2018-09-20T05:41:54.330Z,23.66
2018-09-20T05:42:26.406Z,23.66
2018-09-20T05:42:58.524Z,23.67
2018-09-20T05:43:30.787Z,23.67
2018-09-20T05:44:02.973Z,23.67
2018-09-20T05:44:35.073Z,23.67
2018-09-20T05:45:07.227Z,23.67
2018-09-20T05:45:39.350Z,23.67
2018-09-20T05:46:11.444Z,23.66
2018-09-20T05:46:43.569Z,23.66
2018-09-20T05:47:15.678Z,23.66
2018-09-20T05:47:47.859Z,23.67
2018-09-20T05:48:20.001Z,23.67
2018-09-20T05:48:52.177Z,23.68
2018-09-20T05:49:24.317Z,23.67
2018-09-20T05:49:56.480Z,23.67
2018-09-20T05:50:28.587Z,23.67
2018-09-20T05:51:00.700Z,23.67
2018-09-20T05:51:32.862Z,23.67
2018-09-20T05:52:04.985Z,23.67
2018-09-20T05:52:37.120Z,23.67
2018-09-20T05:53:09.347Z,23.67
2018-09-20T05:53:41.439Z,23.66
2018-09-20T05:54:13.534Z,23.67
2018-09-20T05:54:45.664Z,23.65
2018-09-20T05:55:17.786Z,23.67
2018-09-20T05:55:50.007Z,23.66
2018-09-20T05:56:22.162Z,23.66
2018-09-20T05:56:54.254Z,23.67
2018-09-20T05:57:26.477Z,23.68
2018-09-20T05:57:58.732Z,23.68
2018-09-20T05:58:30.832Z,23.68
2018-09-20T05:59:03.113Z,23.68
2018-09-20T05:59:35.285Z,23.68
2018-09-20T06:00:07.415Z,23.67
2018-09-20T06:00:39.558Z,23.67
2018-09-20T06:01:11.625Z,23.67
2018-09-20T06:01:43.925Z,23.68
2018-09-20T06:02:16.042Z,23.67
2018-09-20T06:02:48.186Z,23.67
2018-09-20T06:03:20.334Z,23.67
2018-09-20T06:03:52.425Z,23.67
2018-09-20T06:04:24.684Z,23.67
2018-09-20T06:04:56.787Z,23.68
2018-09-20T06:05:29.094Z,23.67
2018-09-20T06:06:01.519Z,23.67
2018-09-20T06:06:33.679Z,23.68
2018-09-20T06:07:05.774Z,23.67
2018-09-20T06:07:37.920Z,23.67
2018-09-20T06:08:10.078Z,23.67
2018-09-20T06:08:42.251Z,23.67
2018-09-20T06:09:14.429Z,23.68
2018-09-20T06:09:46.698Z,23.68
2018-09-20T06:10:18.835Z,23.68
2018-09-20T06:10:51.182Z,23.69
2018-09-20T06:11:23.579Z,23.68
2018-09-20T06:11:55.834Z,23.69
2018-09-20T06:12:27.982Z,23.69
2018-09-20T06:13:00.087Z,23.70
2018-09-20T06:13:32.202Z,23.69
2018-09-20T06:14:04.342Z,23.70
2018-09-20T06:14:36.458Z,23.70
2018-09-20T06:15:08.593Z,23.71
2018-09-20T06:15:40.841Z,23.72
2018-09-20T06:16:13.059Z,23.71
2018-09-20T06:16:45.327Z,23.72
2018-09-20T06:17:17.448Z,23.72
2018-09-20T06:17:49.594Z,23.72
2018-09-20T06:18:21.717Z,23.71
2018-09-20T06:18:53.846Z,23.71
2018-09-20T06:19:26.133Z,23.73
2018-09-20T06:19:58.221Z,23.72
2018-09-20T06:20:30.342Z,23.72
2018-09-20T06:21:02.687Z,23.71
2018-09-20T06:21:34.823Z,23.71
2018-09-20T06:22:07.106Z,23.72
2018-09-20T06:22:39.238Z,23.70
2018-09-20T06:23:11.375Z,23.71
2018-09-20T06:23:43.563Z,23.71
2018-09-20T06:24:15.682Z,23.71
2018-09-20T06:24:47.813Z,23.72
2018-09-20T06:25:19.994Z,23.72
2018-09-20T06:25:52.213Z,23.74
2018-09-20T06:26:24.322Z,23.73
2018-09-20T06:26:56.450Z,23.73
2018-09-20T06:27:28.792Z,23.72
2018-09-20T06:28:00.861Z,23.73
2018-09-20T06:28:33.111Z,23.72
2018-09-20T06:29:05.409Z,23.72
2018-09-20T06:29:37.506Z,23.73
2018-09-20T06:30:09.655Z,23.73
2018-09-20T06:30:41.818Z,23.73
2018-09-20T06:31:14.091Z,23.74
2018-09-20T06:31:46.284Z,23.75
2018-09-20T06:32:18.382Z,23.74
2018-09-20T06:32:50.523Z,23.76
2018-09-20T06:33:22.626Z,23.74
2018-09-20T06:33:54.735Z,23.74
2018-09-20T06:34:26.945Z,23.75
2018-09-20T06:34:59.119Z,23.77
2018-09-20T06:35:31.154Z,23.78
2018-09-20T06:36:03.290Z,23.77
2018-09-20T06:36:35.545Z,23.78
2018-09-20T06:37:07.768Z,23.77
2018-09-20T06:37:39.915Z,23.77
2018-09-20T06:38:12.073Z,23.76
2018-09-20T06:38:44.197Z,23.78
2018-09-20T06:39:16.399Z,23.78
2018-09-20T06:39:48.524Z,23.77
2018-09-20T06:40:20.715Z,23.78
2018-09-20T06:40:52.870Z,23.78
2018-09-20T06:41:25.004Z,23.77
2018-09-20T06:41:57.289Z,23.78
2018-09-20T06:42:29.430Z,23.78
2018-09-20T06:43:01.793Z,23.78
2018-09-20T06:43:33.927Z,23.78
2018-09-20T06:44:06.050Z,23.78
2018-09-20T06:44:38.461Z,23.78
2018-09-20T06:45:10.813Z,23.77
2018-09-20T06:45:42.921Z,23.79
2018-09-20T06:46:15.020Z,23.78
2018-09-20T06:46:47.411Z,23.78
2018-09-20T06:47:19.538Z,23.79
2018-09-20T06:47:51.653Z,23.78
2018-09-20T06:48:23.872Z,23.80
2018-09-20T06:48:56.090Z,23.80
2018-09-20T06:49:28.209Z,23.80
2018-09-20T06:50:00.465Z,23.80
2018-09-20T06:50:32.783Z,23.79
2018-09-20T06:51:05.158Z,23.81
2018-09-20T06:51:37.236Z,23.79
2018-09-20T06:52:09.343Z,23.80
2018-09-20T06:52:41.538Z,23.81
2018-09-20T06:53:13.736Z,23.81
2018-09-20T06:53:45.877Z,23.81
2018-09-20T06:54:17.976Z,23.80
2018-09-20T06:54:50.095Z,23.81